createdAt,value
2018-12-24T00:03:31.947Z,1.10
2018-12-24T00:06:01.791Z,1.00
2018-12-24T00:09:22.890Z,1.10
2018-12-24T00:12:06.973Z,1.20
2018-12-24T00:14:53.535Z,1.10
2018-12-24T00:17:23.332Z,1.30
2018-12-24T00:19:56.113Z,1.20
2018-12-24T00:22:25.773Z,1.00
2018-12-24T00:25:14.806Z,1.00
2018-12-24T00:27:44.601Z,1.10
2018-12-24T00:30:14.330Z,0.90
2018-12-24T00:33:03.428Z,0.77
2018-12-24T00:35:52.288Z,1.07
2018-12-24T00:38:24.444Z,0.83
2018-12-24T00:41:13.565Z,1.00
2018-12-24T00:43:43.606Z,0.80
2018-12-24T00:46:51.788Z,1.20
2018-12-24T00:49:21.587Z,1.00
2018-12-24T00:51:51.364Z,1.10
2018-12-24T00:54:21.044Z,1.03
2018-12-24T00:57:09.772Z,1.30
2018-12-24T00:59:39.566Z,1.00
2018-12-24T01:05:24.886Z,1.20
2018-12-24T01:07:54.654Z,1.37
2018-12-24T01:10:24.423Z,1.30
2018-12-24T01:13:13.535Z,1.57
2018-12-24T01:15:44.336Z,1.70
2018-12-24T01:21:49.034Z,1.60
2018-12-24T01:24:19.132Z,1.87
2018-12-24T01:27:08.197Z,1.80
2018-12-24T01:29:37.993Z,1.90
2018-12-24T01:32:08.220Z,1.87
2018-12-24T01:34:37.906Z,1.90
2018-12-24T01:37:19.499Z,1.90
2018-12-24T01:40:01.120Z,1.90
2018-12-24T01:42:33.471Z,2.40
2018-12-24T01:45:21.414Z,2.37
2018-12-24T01:47:51.289Z,2.50
2018-12-24T01:50:21.263Z,2.40
2018-12-24T01:53:10.300Z,2.30
2018-12-24T01:55:40.095Z,2.27
2018-12-24T01:58:09.864Z,2.10
2018-12-24T02:01:02.447Z,1.47
2018-12-24T02:03:32.282Z,1.40
2018-12-24T02:06:21.284Z,1.40
2018-12-24T02:08:51.129Z,1.60
2018-12-24T02:14:30.742Z,1.20
2018-12-24T02:17:00.494Z,1.40
2018-12-24T02:19:30.263Z,1.10
2018-12-24T02:22:19.342Z,1.47
2018-12-24T02:24:49.112Z,1.43
2018-12-24T02:27:18.887Z,1.53
2018-12-24T02:32:56.491Z,1.77
2018-12-24T02:35:26.167Z,1.77
2018-12-24T02:38:07.038Z,1.70
2018-12-24T02:40:55.653Z,1.40
2018-12-24T02:43:25.501Z,1.63
2018-12-24T02:46:14.257Z,1.40
2018-12-24T02:48:46.526Z,1.23
2018-12-24T02:51:16.674Z,1.10
2018-12-24T02:54:05.738Z,1.10
2018-12-24T02:59:10.834Z,1.40
2018-12-24T03:01:59.755Z,1.33
2018-12-24T03:04:29.654Z,1.30
2018-12-24T03:06:59.378Z,1.17
2018-12-24T03:09:41.113Z,1.40
2018-12-24T03:12:22.474Z,1.23
2018-12-24T03:15:11.302Z,1.20
2018-12-24T03:17:41.135Z,1.40
2018-12-24T03:20:30.185Z,1.20
2018-12-24T03:23:00.147Z,1.30
2018-12-24T03:28:37.446Z,1.40
2018-12-24T03:31:07.258Z,1.30
2018-12-24T03:33:38.291Z,1.90
2018-12-24T03:36:27.366Z,1.60
2018-12-24T03:38:57.823Z,1.70
2018-12-24T03:41:28.185Z,2.07
2018-12-24T03:43:58.123Z,2.10
2018-12-24T03:46:47.152Z,2.13
2018-12-24T03:52:31.337Z,2.90
2018-12-24T03:55:01.670Z,3.20
2018-12-24T03:57:31.751Z,3.23
2018-12-24T04:00:41.093Z,3.50
2018-12-24T04:03:10.790Z,3.67
2018-12-24T04:05:40.528Z,3.77
2018-12-24T04:08:29.466Z,3.93
2018-12-24T04:13:54.468Z,3.80
2018-12-24T04:19:52.347Z,3.03
2018-12-24T04:22:22.527Z,2.83
2018-12-24T04:24:52.219Z,2.50
2018-12-24T04:27:42.101Z,2.37
2018-12-24T04:30:12.723Z,2.13
2018-12-24T04:32:42.478Z,2.30
2018-12-24T04:35:12.238Z,2.20
2018-12-24T04:38:01.443Z,2.20
2018-12-24T04:40:31.212Z,2.50
2018-12-24T04:43:00.931Z,1.73
2018-12-24T04:45:50.025Z,2.10
2018-12-24T04:48:19.829Z,1.87
2018-12-24T04:51:08.645Z,2.00
2018-12-24T04:53:38.411Z,2.10
2018-12-24T04:56:08.147Z,1.77
2018-12-24T04:58:57.193Z,1.57
2018-12-24T05:01:27.167Z,1.70
2018-12-24T05:03:56.863Z,1.77
2018-12-24T05:06:26.607Z,1.60
2018-12-24T05:09:08.187Z,1.40
2018-12-24T05:11:38.045Z,1.53
2018-12-24T05:17:33.271Z,1.13
2018-12-24T05:20:03.146Z,1.10
2018-12-24T05:22:32.902Z,1.10
2018-12-24T05:25:21.957Z,1.20
2018-12-24T05:27:51.735Z,0.90
2018-12-24T05:30:21.512Z,1.20
2018-12-24T05:33:10.246Z,1.17
2018-12-24T05:35:40.062Z,0.90
2018-12-24T05:38:29.085Z,0.97
2018-12-24T05:40:58.958Z,1.20
2018-12-24T05:43:28.666Z,1.10
2018-12-24T05:45:58.385Z,1.00
2018-12-24T05:48:47.406Z,1.20
2018-12-24T05:51:17.249Z,1.30
2018-12-24T05:53:48.038Z,1.10
2018-12-24T05:56:18.681Z,1.20
2018-12-24T05:59:07.698Z,1.30
2018-12-24T06:01:37.525Z,1.20
2018-12-24T06:04:07.257Z,1.30
2018-12-24T06:06:37.000Z,1.60
2018-12-24T06:09:26.049Z,1.47
2018-12-24T06:11:57.957Z,1.20
2018-12-24T06:14:27.623Z,1.50
2018-12-24T06:16:57.383Z,1.40
2018-12-24T06:19:27.415Z,1.60
2018-12-24T06:21:57.514Z,1.50
2018-12-24T06:24:30.148Z,1.50
2018-12-24T06:26:59.931Z,1.43
2018-12-24T06:29:48.983Z,1.50
2018-12-24T06:32:18.793Z,1.70
2018-12-24T06:34:48.954Z,1.70
2018-12-24T06:37:39.305Z,1.93
2018-12-24T06:40:09.146Z,2.00
2018-12-24T06:42:38.936Z,2.07
2018-12-24T06:45:27.989Z,2.10
2018-12-24T06:47:58.090Z,2.10
2018-12-24T06:50:39.950Z,2.43
2018-12-24T06:53:18.964Z,2.30
2018-12-24T06:55:48.718Z,2.83
2018-12-24T06:58:18.461Z,2.40
2018-12-24T07:01:07.709Z,3.13
2018-12-24T07:03:37.476Z,2.97
2018-12-24T07:06:26.591Z,2.97
2018-12-24T07:12:12.116Z,3.27
2018-12-24T07:15:01.128Z,3.00
2018-12-24T07:17:54.727Z,2.93
2018-12-24T07:23:55.891Z,2.20
2018-12-24T07:26:37.335Z,1.90
2018-12-24T07:29:45.067Z,1.57
2018-12-24T07:32:14.984Z,1.70
2018-12-24T07:35:03.829Z,1.90
2018-12-24T07:37:33.674Z,1.70
2018-12-24T07:40:22.722Z,1.77
2018-12-24T07:45:29.133Z,1.53
2018-12-24T07:48:17.910Z,2.03
2018-12-24T07:53:43.157Z,3.00
2018-12-24T07:56:32.386Z,3.13
2018-12-24T07:59:02.138Z,3.50
2018-12-24T08:02:09.773Z,3.50
2018-12-24T08:05:35.794Z,3.83
2018-12-24T08:11:15.301Z,6.27
2018-12-24T08:13:57.965Z,6.40
2018-12-24T08:16:39.555Z,12.10
2018-12-24T08:19:09.444Z,20.67
2018-12-24T08:24:35.006Z,10.67
2018-12-24T08:27:16.194Z,9.53
2018-12-24T08:29:50.955Z,7.03
2018-12-24T08:32:20.824Z,15.40
2018-12-24T08:37:48.579Z,7.23
2018-12-24T08:40:18.747Z,6.67
2018-12-24T08:43:07.858Z,6.83
2018-12-24T08:45:37.925Z,7.03
2018-12-24T08:54:12.619Z,5.50
2018-12-24T08:56:42.535Z,5.00
2018-12-24T08:59:32.766Z,5.00
2018-12-24T09:05:05.738Z,4.50
2018-12-24T09:07:54.610Z,4.00
2018-12-24T09:10:24.444Z,4.27
2018-12-24T09:12:54.251Z,4.03
2018-12-24T09:15:35.128Z,4.50
2018-12-24T09:18:16.660Z,8.77
2018-12-24T09:21:05.660Z,5.43
2018-12-24T09:23:35.847Z,12.77
2018-12-24T09:26:25.111Z,6.93
2018-12-24T09:29:13.996Z,6.60
2018-12-24T09:35:05.089Z,4.83
2018-12-24T09:37:54.326Z,4.43
2018-12-24T09:46:35.553Z,4.77
2018-12-24T09:49:24.510Z,4.70
2018-12-24T09:52:33.802Z,3.80
2018-12-24T09:55:03.729Z,4.63
2018-12-24T09:57:34.986Z,6.23
2018-12-24T10:00:42.953Z,4.80
2018-12-24T10:09:52.740Z,5.63
2018-12-24T10:19:04.322Z,3.50
2018-12-24T10:21:55.431Z,3.50
2018-12-24T10:24:25.532Z,3.30
2018-12-24T10:27:07.079Z,3.13
2018-12-24T10:29:48.094Z,3.27
2018-12-24T10:32:20.043Z,3.17
2018-12-24T10:34:49.888Z,3.27
2018-12-24T10:37:57.900Z,3.13
2018-12-24T10:43:36.614Z,3.93
2018-12-24T10:46:25.964Z,3.80
2018-12-24T10:48:55.926Z,3.27
2018-12-24T10:51:25.702Z,2.60
2018-12-24T10:54:14.508Z,2.57
2018-12-24T10:59:56.946Z,1.90
2018-12-24T11:02:37.697Z,2.40
2018-12-24T11:05:09.354Z,2.73
2018-12-24T11:07:59.021Z,2.80
2018-12-24T11:10:30.012Z,2.90
2018-12-24T11:12:59.886Z,3.10
2018-12-24T11:15:51.236Z,3.43
2018-12-24T11:18:21.107Z,3.80
2018-12-24T11:21:30.202Z,4.17
2018-12-24T11:26:53.557Z,3.87
2018-12-24T11:29:42.473Z,4.70
2018-12-24T11:32:12.246Z,5.03
2018-12-24T11:34:44.533Z,4.33
2018-12-24T11:37:33.703Z,4.70
2018-12-24T11:40:03.835Z,3.83
2018-12-24T11:42:52.998Z,3.30
2018-12-24T11:45:37.372Z,3.57
2018-12-24T11:51:04.405Z,2.67
2018-12-24T11:53:53.030Z,3.00
2018-12-24T11:56:22.924Z,2.87
2018-12-24T12:02:28.460Z,3.03
2018-12-24T12:05:17.870Z,3.20
2018-12-24T12:14:04.526Z,3.00
2018-12-24T12:17:07.015Z,3.50
2018-12-24T12:19:33.751Z,3.97
2018-12-24T12:22:03.696Z,3.33
2018-12-24T12:30:10.799Z,3.73
2018-12-24T12:32:59.636Z,3.23
2018-12-24T12:35:48.469Z,3.33
2018-12-24T12:38:18.828Z,3.30
2018-12-24T12:41:08.225Z,3.47
2018-12-24T12:43:38.328Z,3.20
2018-12-24T12:49:02.754Z,3.00
2018-12-24T12:51:32.689Z,3.43
2018-12-24T12:54:22.222Z,2.63
2018-12-24T12:57:31.547Z,2.87
2018-12-24T13:03:05.557Z,2.60
2018-12-24T13:05:56.103Z,3.57
2018-12-24T13:08:45.524Z,3.00
2018-12-24T13:14:32.175Z,3.80
2018-12-24T13:17:20.920Z,3.77
2018-12-24T13:20:10.344Z,3.70
2018-12-24T13:22:40.584Z,3.80
2018-12-24T13:25:29.438Z,3.60
2018-12-24T13:27:59.371Z,4.40
2018-12-24T13:38:41.632Z,3.63
2018-12-24T13:41:11.385Z,3.93
2018-12-24T13:43:41.180Z,3.93
2018-12-24T13:46:32.937Z,4.30
2018-12-24T13:49:02.918Z,4.43
2018-12-24T13:51:35.879Z,4.23
2018-12-24T13:54:27.115Z,4.53
2018-12-24T13:59:48.078Z,4.80
2018-12-24T14:02:39.106Z,4.70
2018-12-24T14:05:11.820Z,4.60
2018-12-24T14:07:55.941Z,4.37
2018-12-24T14:16:58.021Z,5.67
2018-12-24T14:25:43.856Z,5.33
2018-12-24T14:28:25.693Z,5.97
2018-12-24T14:30:55.506Z,5.07
2018-12-24T14:33:25.214Z,5.20
2018-12-24T14:36:14.276Z,4.07
2018-12-24T14:38:46.634Z,4.33
2018-12-24T14:41:16.770Z,4.40
2018-12-24T14:44:05.921Z,4.80
2018-12-24T14:46:35.635Z,5.00
2018-12-24T14:49:05.968Z,5.07
2018-12-24T14:51:35.746Z,5.23
2018-12-24T14:54:25.210Z,5.13
2018-12-24T14:56:55.166Z,4.70
2018-12-24T14:59:24.978Z,4.77
2018-12-24T15:05:28.858Z,5.27
2018-12-24T15:07:59.198Z,5.77
2018-12-24T15:10:33.807Z,7.03
2018-12-24T15:16:01.273Z,6.80
2018-12-24T15:18:50.199Z,6.70
2018-12-24T15:21:39.005Z,7.90
2018-12-24T15:24:08.812Z,7.60
2018-12-24T15:26:50.320Z,7.33
2018-12-24T15:29:31.288Z,7.33
2018-12-24T15:32:01.470Z,7.50
2018-12-24T15:34:31.315Z,7.57
2018-12-24T15:37:20.328Z,8.47
2018-12-24T15:42:45.144Z,8.03
2018-12-24T15:51:12.907Z,8.13
2018-12-24T15:54:01.728Z,7.63
2018-12-24T15:56:31.664Z,7.37
2018-12-24T15:59:01.695Z,8.40
2018-12-24T16:01:51.034Z,8.20
2018-12-24T16:04:39.634Z,8.13
2018-12-24T16:07:20.060Z,10.37
2018-12-24T16:10:10.245Z,8.60
2018-12-24T16:12:48.230Z,8.60
2018-12-24T16:15:20.534Z,7.33
2018-12-24T16:18:09.988Z,7.70
2018-12-24T16:21:21.879Z,8.03
2018-12-24T16:24:11.209Z,7.83
2018-12-24T16:26:43.264Z,6.87
2018-12-24T16:41:22.566Z,8.23
2018-12-24T16:44:30.457Z,8.33
2018-12-24T16:50:10.430Z,10.80
2018-12-24T16:52:59.226Z,8.73
2018-12-24T16:55:31.853Z,7.73
2018-12-24T16:58:58.299Z,7.90
2018-12-24T17:04:43.839Z,7.80
2018-12-24T17:13:30.909Z,7.27
2018-12-24T17:22:35.438Z,6.67
2018-12-24T17:25:08.251Z,6.90
2018-12-24T17:28:00.431Z,7.17
2018-12-24T17:30:33.051Z,6.87
2018-12-24T17:36:23.821Z,6.90
2018-12-24T17:42:40.842Z,7.03
2018-12-24T17:47:50.745Z,7.40
2018-12-24T17:50:40.152Z,7.40
2018-12-24T17:53:10.181Z,7.43
2018-12-24T17:55:41.666Z,7.73
2018-12-24T17:58:37.563Z,7.73
2018-12-24T18:01:26.778Z,8.10
2018-12-24T18:04:36.110Z,10.87
2018-12-24T18:07:06.117Z,12.30
2018-12-24T18:12:24.706Z,9.77
2018-12-24T18:14:54.490Z,8.30
2018-12-24T18:20:19.799Z,8.83
2018-12-24T18:23:01.468Z,8.37
2018-12-24T18:25:33.348Z,8.50
2018-12-24T18:28:22.311Z,7.37
2018-12-24T18:31:04.110Z,7.80
2018-12-24T18:36:41.303Z,7.60
2018-12-24T18:45:02.253Z,8.90
2018-12-24T18:51:12.809Z,7.93
2018-12-24T18:57:04.568Z,7.47
2018-12-24T19:05:28.897Z,6.77
2018-12-24T19:11:29.881Z,5.57
2018-12-24T19:14:00.610Z,7.03
2018-12-24T19:17:04.234Z,6.70
2018-12-24T19:19:21.751Z,6.30
2018-12-24T19:25:17.273Z,9.83
2018-12-24T19:27:47.669Z,6.83
2018-12-24T19:30:17.909Z,7.97
2018-12-24T19:45:37.682Z,6.10
2018-12-24T19:48:08.149Z,6.33
2018-12-24T19:53:30.351Z,7.20
2018-12-24T19:56:03.022Z,7.03
2018-12-24T19:58:33.212Z,6.93
2018-12-24T20:01:41.105Z,6.20
2018-12-24T20:04:33.351Z,6.63
2018-12-24T20:07:22.259Z,6.60
2018-12-24T20:10:16.764Z,7.63
2018-12-24T20:12:24.409Z,6.77
2018-12-24T20:18:46.059Z,6.47
2018-12-24T20:24:06.657Z,6.50
2018-12-24T20:27:16.091Z,6.73
2018-12-24T20:29:47.786Z,6.83
2018-12-24T20:32:17.643Z,5.60
2018-12-24T20:35:17.503Z,6.73
2018-12-24T20:37:47.489Z,5.90
2018-12-24T20:40:17.657Z,6.53
2018-12-24T20:43:07.029Z,6.47
2018-12-24T20:48:17.791Z,6.30
2018-12-24T20:51:06.549Z,6.33
2018-12-24T20:53:36.621Z,6.77
2018-12-24T20:59:53.366Z,6.30
2018-12-24T21:02:44.902Z,6.83
2018-12-24T21:05:15.919Z,7.30
2018-12-24T21:13:52.481Z,8.30
2018-12-24T21:16:22.367Z,7.30
2018-12-24T21:19:30.390Z,7.77
2018-12-24T21:24:49.296Z,8.53
2018-12-24T21:27:38.320Z,7.97
2018-12-24T21:33:23.966Z,7.03
2018-12-24T21:36:31.778Z,7.03
2018-12-24T21:41:36.420Z,7.90
2018-12-24T21:44:28.187Z,7.97
2018-12-24T21:53:21.310Z,7.70
2018-12-24T21:56:10.260Z,7.03
2018-12-24T21:58:54.370Z,7.70
2018-12-24T22:02:06.351Z,6.93
2018-12-24T22:07:53.244Z,5.97
2018-12-24T22:13:50.961Z,7.13
2018-12-24T22:19:36.279Z,6.50
2018-12-24T22:22:17.847Z,6.73
2018-12-24T22:25:14.416Z,6.50
2018-12-24T22:31:12.563Z,6.27
2018-12-24T22:36:43.190Z,6.47
2018-12-24T22:39:15.069Z,6.50
2018-12-24T22:41:45.299Z,5.50
2018-12-24T22:44:34.402Z,5.73
2018-12-24T22:47:42.202Z,5.67
2018-12-24T22:50:28.361Z,5.07
2018-12-24T22:53:00.633Z,5.47
2018-12-24T22:55:50.039Z,5.10
2018-12-24T22:58:38.555Z,4.90
2018-12-24T23:01:08.293Z,5.67
2018-12-24T23:06:45.658Z,5.13
2018-12-24T23:12:25.164Z,4.97
2018-12-24T23:15:11.399Z,5.07
2018-12-24T23:18:00.506Z,4.10
2018-12-24T23:23:47.171Z,4.67
2018-12-24T23:29:36.685Z,4.43
2018-12-24T23:32:07.537Z,4.57
2018-12-24T23:34:56.566Z,4.83
2018-12-24T23:37:26.339Z,4.97
2018-12-24T23:39:57.007Z,4.97
2018-12-24T23:42:26.777Z,4.90
2018-12-24T23:45:15.958Z,4.80
2018-12-24T23:51:01.776Z,4.43
2018-12-24T23:53:50.515Z,4.77
2018-12-24T23:59:59.965Z,4.77
